createdAt,value
2019-03-27T00:01:33.990Z,18.87
2019-03-27T00:04:05.259Z,16.40
2019-03-27T00:06:36.507Z,18.77
2019-03-27T00:09:07.925Z,17.97
2019-03-27T00:11:39.004Z,17.43
2019-03-27T00:14:10.255Z,18.03
2019-03-27T00:16:41.340Z,17.37
2019-03-27T00:19:12.608Z,18.20
2019-03-27T00:21:43.754Z,18.00
2019-03-27T00:24:14.887Z,15.07
2019-03-27T00:26:45.979Z,18.27
2019-03-27T00:29:17.078Z,14.17
2019-03-27T00:31:48.210Z,16.73
2019-03-27T00:34:19.336Z,17.53
2019-03-27T00:36:50.504Z,13.40
2019-03-27T00:39:21.695Z,16.93
2019-03-27T00:41:53.004Z,20.53
2019-03-27T00:44:24.329Z,21.07
2019-03-27T00:46:55.485Z,22.83
2019-03-27T00:49:26.693Z,22.83
2019-03-27T00:51:57.928Z,25.60
2019-03-27T00:54:29.880Z,20.77
2019-03-27T00:57:01.057Z,25.40
2019-03-27T00:59:32.188Z,26.80
2019-03-27T01:02:03.400Z,27.43
2019-03-27T01:04:34.598Z,33.93
2019-03-27T01:07:05.834Z,25.20
2019-03-27T01:09:37.133Z,22.00
2019-03-27T01:12:08.390Z,23.80
2019-03-27T01:14:39.493Z,19.33
2019-03-27T01:17:10.590Z,22.40
2019-03-27T01:19:41.708Z,25.17
2019-03-27T01:22:12.951Z,20.43
2019-03-27T01:24:44.018Z,22.50
2019-03-27T01:27:15.173Z,21.07
2019-03-27T01:29:46.390Z,20.03
2019-03-27T01:32:17.535Z,17.83
2019-03-27T01:34:48.824Z,20.93
2019-03-27T01:37:20.200Z,20.17
2019-03-27T01:39:51.353Z,20.77
2019-03-27T01:42:22.628Z,20.03
2019-03-27T01:44:53.814Z,25.20
2019-03-27T01:47:24.994Z,21.77
2019-03-27T01:49:56.168Z,23.50
2019-03-27T01:52:27.338Z,21.53
2019-03-27T01:54:58.484Z,17.70
2019-03-27T01:57:29.607Z,19.40
2019-03-27T02:00:00.741Z,20.93
2019-03-27T02:02:31.994Z,17.43
2019-03-27T02:05:03.270Z,24.47
2019-03-27T02:07:34.484Z,23.17
2019-03-27T02:10:06.755Z,25.13
2019-03-27T02:12:38.044Z,21.13
2019-03-27T02:15:10.634Z,22.80
2019-03-27T02:17:42.799Z,32.67
2019-03-27T02:20:14.603Z,23.97
2019-03-27T02:22:45.700Z,20.60
2019-03-27T02:25:16.780Z,26.07
2019-03-27T02:27:48.119Z,39.67
2019-03-27T02:30:19.305Z,69.23
2019-03-27T02:32:50.551Z,61.07
2019-03-27T02:35:21.715Z,39.93
2019-03-27T02:37:53.025Z,34.77
2019-03-27T02:40:24.100Z,39.57
2019-03-27T02:42:55.335Z,35.20
2019-03-27T02:45:26.555Z,41.60
2019-03-27T02:47:57.944Z,42.27
2019-03-27T02:50:29.204Z,38.93
2019-03-27T02:53:00.521Z,46.27
2019-03-27T02:55:31.672Z,36.50
2019-03-27T02:58:02.944Z,42.17
2019-03-27T03:00:34.797Z,30.63
2019-03-27T03:03:06.170Z,29.60
2019-03-27T03:05:37.445Z,34.93
2019-03-27T03:08:08.761Z,30.23
2019-03-27T03:10:40.024Z,33.80
2019-03-27T03:13:11.300Z,33.07
2019-03-27T03:15:42.525Z,40.10
2019-03-27T03:18:13.820Z,33.97
2019-03-27T03:20:45.050Z,38.97
2019-03-27T03:23:17.194Z,41.60
2019-03-27T03:25:48.419Z,47.27
2019-03-27T03:28:19.760Z,45.83
2019-03-27T03:30:50.869Z,47.67
2019-03-27T03:33:21.979Z,43.67
2019-03-27T03:35:53.261Z,57.73
2019-03-27T03:38:24.409Z,64.10
2019-03-27T03:40:55.830Z,53.90
2019-03-27T03:43:27.165Z,57.97
2019-03-27T03:45:58.518Z,59.33
2019-03-27T03:48:29.695Z,81.93
2019-03-27T03:51:03.207Z,64.03
2019-03-27T03:53:35.197Z,67.40
2019-03-27T03:56:06.565Z,55.73
2019-03-27T03:58:39.439Z,55.27
2019-03-27T04:01:11.849Z,44.80
2019-03-27T04:03:44.967Z,39.80
2019-03-27T04:06:16.113Z,53.00
2019-03-27T04:08:47.289Z,49.77
2019-03-27T04:11:18.911Z,71.83
2019-03-27T04:13:50.205Z,81.33
2019-03-27T04:16:21.538Z,74.90
2019-03-27T04:18:52.719Z,75.47
2019-03-27T04:21:26.944Z,63.93
2019-03-27T04:23:57.163Z,71.70
2019-03-27T04:26:28.435Z,88.57
2019-03-27T04:28:59.762Z,177.50
2019-03-27T04:31:30.976Z,186.37
2019-03-27T04:34:02.149Z,194.27
2019-03-27T04:36:34.032Z,171.40
2019-03-27T04:39:05.994Z,165.87
2019-03-27T04:41:37.267Z,192.67
2019-03-27T04:44:08.711Z,229.53
2019-03-27T04:46:40.062Z,252.60
2019-03-27T04:49:11.562Z,208.13
2019-03-27T04:51:42.929Z,144.23
2019-03-27T04:54:14.255Z,132.70
2019-03-27T04:56:45.718Z,142.90
2019-03-27T04:59:17.149Z,153.40
2019-03-27T05:01:48.595Z,154.40
2019-03-27T05:04:21.118Z,153.33
2019-03-27T05:06:52.695Z,139.90
2019-03-27T05:09:24.057Z,147.93
2019-03-27T05:11:55.381Z,148.37
2019-03-27T05:14:26.903Z,182.70
2019-03-27T05:16:58.333Z,164.70
2019-03-27T05:19:29.732Z,149.97
2019-03-27T05:22:01.360Z,179.07
2019-03-27T05:24:33.256Z,129.10
2019-03-27T05:27:04.579Z,135.40
2019-03-27T05:29:35.937Z,106.70
2019-03-27T05:32:07.233Z,59.37
2019-03-27T05:34:38.906Z,61.73
2019-03-27T05:37:10.143Z,69.77
2019-03-27T05:39:41.972Z,47.07
2019-03-27T05:42:13.791Z,53.17
2019-03-27T05:44:45.035Z,54.73
2019-03-27T05:47:16.352Z,37.53
2019-03-27T05:49:47.771Z,40.33
2019-03-27T05:52:19.035Z,33.50
2019-03-27T05:54:50.241Z,30.17
2019-03-27T05:57:21.473Z,28.17
2019-03-27T05:59:52.794Z,22.27
2019-03-27T06:02:23.909Z,22.30
2019-03-27T06:04:55.108Z,33.53
2019-03-27T06:07:26.360Z,29.33
2019-03-27T06:09:57.802Z,30.10
2019-03-27T06:12:29.001Z,26.47
2019-03-27T06:15:00.498Z,22.90
2019-03-27T06:17:31.732Z,22.80
2019-03-27T06:20:03.299Z,19.20
2019-03-27T06:22:34.663Z,19.23
2019-03-27T06:25:06.449Z,20.67
2019-03-27T06:27:37.645Z,24.53
2019-03-27T06:30:12.033Z,30.57
2019-03-27T06:32:43.269Z,30.73
2019-03-27T06:35:14.868Z,47.20
2019-03-27T06:37:45.980Z,44.87
2019-03-27T06:40:17.344Z,39.40
2019-03-27T06:42:48.619Z,27.77
2019-03-27T06:45:19.910Z,26.47
2019-03-27T06:47:51.109Z,26.10
2019-03-27T06:50:22.359Z,23.07
2019-03-27T06:52:53.629Z,20.10
2019-03-27T06:55:24.999Z,18.90
2019-03-27T06:57:56.308Z,15.93
2019-03-27T07:00:38.584Z,19.40
2019-03-27T07:03:10.478Z,18.10
2019-03-27T07:05:41.668Z,15.37
2019-03-27T07:08:12.978Z,18.63
2019-03-27T07:10:44.159Z,17.60
2019-03-27T07:13:15.338Z,18.30
2019-03-27T07:15:46.489Z,23.03
2019-03-27T07:18:17.690Z,20.33
2019-03-27T07:20:48.914Z,26.30
2019-03-27T07:23:20.235Z,25.57
2019-03-27T07:25:51.522Z,24.63
2019-03-27T07:28:22.851Z,20.93
2019-03-27T07:30:53.951Z,26.10
2019-03-27T07:33:25.341Z,21.13
2019-03-27T07:35:56.514Z,22.83
2019-03-27T07:38:27.815Z,20.67
2019-03-27T07:40:59.104Z,24.80
2019-03-27T07:43:30.430Z,18.97
2019-03-27T07:46:01.680Z,15.50
2019-03-27T07:48:32.896Z,18.90
2019-03-27T07:51:04.092Z,15.63
2019-03-27T07:53:35.339Z,16.50
2019-03-27T07:56:06.728Z,18.87
2019-03-27T07:58:37.916Z,13.27
2019-03-27T08:01:09.116Z,16.63
2019-03-27T08:03:40.448Z,14.40
2019-03-27T08:06:11.631Z,10.00
2019-03-27T08:08:42.855Z,11.67
2019-03-27T08:11:14.783Z,12.47
2019-03-27T08:13:46.082Z,13.70
2019-03-27T08:16:17.358Z,14.80
2019-03-27T08:18:48.733Z,15.13
2019-03-27T08:21:19.987Z,11.43
2019-03-27T08:23:51.127Z,14.10
2019-03-27T08:26:22.354Z,15.03
2019-03-27T08:28:53.689Z,9.77
2019-03-27T08:31:24.829Z,12.67
2019-03-27T08:33:56.174Z,9.07
2019-03-27T08:36:27.468Z,10.63
2019-03-27T08:38:58.697Z,7.37
2019-03-27T08:41:29.889Z,8.73
2019-03-27T08:44:01.291Z,8.57
2019-03-27T08:46:32.572Z,6.60
2019-03-27T08:49:03.899Z,6.67
2019-03-27T08:51:35.249Z,6.57
2019-03-27T08:54:06.544Z,5.70
2019-03-27T08:56:37.776Z,7.87
2019-03-27T08:59:09.169Z,7.30
2019-03-27T09:01:40.613Z,5.77
2019-03-27T09:04:11.822Z,7.07
2019-03-27T09:06:43.268Z,6.87
2019-03-27T09:09:14.524Z,5.93
2019-03-27T09:11:45.941Z,6.10
2019-03-27T09:14:17.195Z,7.30
2019-03-27T09:16:48.388Z,6.50
2019-03-27T09:19:19.659Z,8.10
2019-03-27T09:21:50.773Z,6.40
2019-03-27T09:24:22.222Z,9.57
2019-03-27T09:26:53.527Z,6.37
2019-03-27T09:29:24.890Z,4.17
2019-03-27T09:31:56.340Z,5.53
2019-03-27T09:34:27.721Z,8.33
2019-03-27T09:36:58.952Z,3.73
2019-03-27T09:39:30.168Z,5.73
2019-03-27T09:42:01.547Z,5.53
2019-03-27T09:44:32.749Z,5.10
2019-03-27T09:47:04.054Z,4.33
2019-03-27T09:49:48.939Z,4.00
2019-03-27T09:52:09.108Z,5.23
2019-03-27T09:54:40.351Z,5.60
2019-03-27T09:57:11.696Z,4.00
2019-03-27T09:59:42.971Z,5.43
2019-03-27T10:02:14.229Z,3.87
2019-03-27T10:04:45.406Z,5.67
2019-03-27T10:07:16.758Z,4.80
2019-03-27T10:09:50.313Z,10.97
2019-03-27T10:12:21.050Z,6.23
2019-03-27T10:14:52.299Z,5.87
2019-03-27T10:17:23.598Z,4.63
2019-03-27T10:20:03.426Z,3.93
2019-03-27T10:22:27.793Z,4.87
2019-03-27T10:24:59.022Z,4.97
2019-03-27T10:27:30.244Z,5.60
2019-03-27T10:30:01.366Z,5.33
2019-03-27T10:32:32.606Z,4.47
2019-03-27T10:35:04.040Z,6.53
2019-03-27T10:37:35.340Z,6.57
2019-03-27T10:40:07.675Z,4.53
2019-03-27T10:42:38.947Z,6.27
2019-03-27T10:45:11.064Z,4.97
2019-03-27T10:47:42.312Z,6.83
2019-03-27T10:52:47.438Z,7.07
2019-03-27T10:55:18.753Z,5.70
2019-03-27T10:57:50.784Z,5.47
2019-03-27T11:00:22.250Z,7.17
2019-03-27T11:02:53.538Z,4.97
2019-03-27T11:05:24.780Z,5.93
2019-03-27T11:07:55.983Z,7.00
2019-03-27T11:10:27.296Z,8.90
2019-03-27T11:12:58.428Z,6.93
2019-03-27T11:15:29.814Z,11.07
2019-03-27T11:18:01.101Z,9.23
2019-03-27T11:20:32.378Z,5.67
2019-03-27T11:23:03.857Z,6.40
2019-03-27T11:25:35.221Z,10.00
2019-03-27T11:28:06.428Z,6.13
2019-03-27T11:30:40.599Z,6.43
2019-03-27T11:33:12.200Z,7.80
2019-03-27T11:35:43.685Z,5.97
2019-03-27T11:38:14.926Z,5.87
2019-03-27T11:40:46.375Z,6.27
2019-03-27T11:43:17.652Z,10.43
2019-03-27T11:45:49.016Z,6.93
2019-03-27T11:48:20.219Z,7.83
2019-03-27T11:50:51.419Z,10.90
2019-03-27T11:53:22.723Z,8.47
2019-03-27T11:55:54.141Z,6.53
2019-03-27T11:58:25.517Z,5.57
2019-03-27T12:00:57.036Z,10.03
2019-03-27T12:03:28.565Z,4.10
2019-03-27T12:06:00.069Z,6.17
2019-03-27T12:08:31.369Z,7.27
2019-03-27T12:11:02.609Z,7.63
2019-03-27T12:13:33.823Z,8.67
2019-03-27T12:16:05.330Z,5.07
2019-03-27T12:18:36.580Z,5.33
2019-03-27T12:21:08.013Z,6.13
2019-03-27T12:23:39.368Z,6.03
2019-03-27T12:26:10.730Z,4.33
2019-03-27T12:28:41.900Z,7.03
2019-03-27T12:31:13.096Z,8.37
2019-03-27T12:33:44.385Z,6.97
2019-03-27T12:36:15.796Z,12.07
2019-03-27T12:38:47.139Z,8.50
2019-03-27T12:41:18.295Z,6.57
2019-03-27T12:43:49.688Z,10.70
2019-03-27T12:46:21.726Z,9.57
2019-03-27T12:48:53.206Z,6.90
2019-03-27T12:51:24.660Z,7.67
2019-03-27T12:53:55.877Z,11.07
2019-03-27T12:56:27.170Z,8.33
2019-03-27T12:58:58.344Z,12.03
2019-03-27T13:01:29.722Z,7.10
2019-03-27T13:04:00.909Z,6.67
2019-03-27T13:06:32.335Z,7.77
2019-03-27T13:09:04.974Z,8.03
2019-03-27T13:11:36.871Z,8.50
2019-03-27T13:14:08.399Z,6.87
2019-03-27T13:16:39.665Z,9.30
2019-03-27T13:19:11.089Z,9.37
2019-03-27T13:21:42.489Z,9.20
2019-03-27T13:24:13.839Z,7.40
2019-03-27T13:26:45.046Z,6.37
2019-03-27T13:29:16.340Z,7.83
2019-03-27T13:31:47.668Z,7.80
2019-03-27T13:34:18.944Z,8.53
2019-03-27T13:36:52.081Z,11.37
2019-03-27T13:39:23.363Z,10.13
2019-03-27T13:41:54.594Z,10.30
2019-03-27T13:44:36.279Z,11.77
2019-03-27T13:46:59.019Z,8.27
2019-03-27T13:49:30.374Z,12.13
2019-03-27T13:52:01.649Z,8.83
2019-03-27T13:54:33.248Z,7.70
2019-03-27T13:57:04.667Z,8.07
2019-03-27T13:59:35.859Z,8.33
2019-03-27T14:02:07.270Z,8.83
2019-03-27T14:04:38.595Z,7.57
2019-03-27T14:07:10.007Z,9.63
2019-03-27T14:09:41.474Z,11.07
2019-03-27T14:12:12.800Z,11.03
2019-03-27T14:14:50.592Z,8.90
2019-03-27T14:17:18.014Z,8.87
2019-03-27T14:19:49.589Z,9.83
2019-03-27T14:22:20.901Z,12.00
2019-03-27T14:24:52.231Z,12.67
2019-03-27T14:27:23.481Z,8.17
2019-03-27T14:29:54.805Z,10.37
2019-03-27T14:32:26.039Z,10.60
2019-03-27T14:34:57.293Z,10.23
2019-03-27T14:37:28.418Z,12.10
2019-03-27T14:39:59.672Z,13.03
2019-03-27T14:42:30.910Z,16.60
2019-03-27T14:45:02.290Z,11.53
2019-03-27T14:47:33.526Z,6.80
2019-03-27T14:50:05.287Z,10.97
2019-03-27T14:52:36.422Z,11.20
2019-03-27T14:55:08.496Z,12.23
2019-03-27T14:57:40.585Z,7.77
2019-03-27T15:00:12.854Z,11.03
2019-03-27T15:02:44.286Z,12.93
2019-03-27T15:05:16.304Z,9.20
2019-03-27T15:07:47.631Z,7.77
2019-03-27T15:10:18.981Z,8.00
2019-03-27T15:12:50.177Z,9.83
2019-03-27T15:15:21.478Z,9.17
2019-03-27T15:17:52.710Z,6.53
2019-03-27T15:20:23.935Z,9.10
2019-03-27T15:22:55.339Z,7.57
2019-03-27T15:25:26.717Z,14.87
2019-03-27T15:27:58.624Z,9.93
2019-03-27T15:30:29.990Z,21.07
2019-03-27T15:33:04.321Z,32.60
2019-03-27T15:35:35.604Z,28.93
2019-03-27T15:38:06.994Z,15.47
2019-03-27T15:40:43.928Z,13.40
2019-03-27T15:43:15.364Z,10.97
2019-03-27T15:45:46.665Z,13.53
2019-03-27T15:48:18.149Z,9.70
2019-03-27T15:50:58.411Z,9.43
2019-03-27T15:53:22.924Z,8.10
2019-03-27T15:55:54.570Z,10.87
2019-03-27T15:58:25.972Z,8.80
2019-03-27T16:00:57.315Z,6.43
2019-03-27T16:03:28.580Z,6.80
2019-03-27T16:05:59.926Z,9.47
2019-03-27T16:08:31.183Z,10.80
2019-03-27T16:11:02.525Z,11.07
2019-03-27T16:13:33.774Z,9.80
2019-03-27T16:16:04.955Z,10.80
2019-03-27T16:18:36.319Z,11.83
2019-03-27T16:21:07.745Z,12.83
2019-03-27T16:23:39.092Z,13.20
2019-03-27T16:26:13.419Z,18.43
2019-03-27T16:28:44.764Z,19.33
2019-03-27T16:31:16.075Z,15.20
2019-03-27T16:33:47.379Z,14.67
2019-03-27T16:36:18.675Z,13.37
2019-03-27T16:38:50.046Z,14.20
2019-03-27T16:41:21.454Z,12.80
2019-03-27T16:43:52.934Z,14.57
2019-03-27T16:46:24.353Z,14.97
2019-03-27T16:48:55.631Z,14.90
2019-03-27T16:51:32.008Z,12.00
2019-03-27T16:54:06.434Z,11.17
2019-03-27T16:56:38.348Z,10.47
2019-03-27T16:59:11.775Z,12.27
2019-03-27T17:01:47.415Z,13.97
2019-03-27T17:04:20.408Z,13.83
2019-03-27T17:06:56.319Z,13.63
2019-03-27T17:09:31.069Z,15.03
2019-03-27T17:12:06.899Z,11.50
2019-03-27T17:14:38.198Z,27.73
2019-03-27T17:17:09.646Z,22.13
2019-03-27T17:19:42.608Z,18.40
2019-03-27T17:22:19.633Z,18.13
2019-03-27T17:24:47.169Z,39.00
2019-03-27T17:27:18.480Z,37.30
2019-03-27T17:29:49.788Z,64.20
2019-03-27T17:32:21.407Z,78.10
2019-03-27T17:34:59.399Z,50.17
2019-03-27T17:37:31.059Z,28.50
2019-03-27T17:40:02.251Z,35.73
2019-03-27T17:42:37.804Z,38.33
2019-03-27T17:45:12.339Z,31.70
2019-03-27T17:47:49.047Z,31.77
2019-03-27T17:50:22.837Z,51.10
2019-03-27T17:52:55.501Z,51.00
2019-03-27T17:55:27.468Z,42.83
2019-03-27T17:58:05.897Z,28.97
2019-03-27T18:00:55.550Z,17.97
2019-03-27T18:03:26.774Z,17.70
2019-03-27T18:05:59.300Z,21.07
2019-03-27T18:08:32.025Z,17.77
2019-03-27T18:11:03.470Z,19.07
2019-03-27T18:13:38.228Z,17.00
2019-03-27T18:16:09.648Z,19.57
2019-03-27T18:18:41.608Z,19.87
2019-03-27T18:21:16.854Z,20.13
2019-03-27T18:23:54.590Z,22.10
2019-03-27T18:26:34.939Z,19.40
2019-03-27T18:29:09.339Z,24.27
2019-03-27T18:31:46.964Z,19.90
2019-03-27T18:34:19.610Z,25.43
2019-03-27T18:36:50.883Z,21.90
2019-03-27T18:39:25.074Z,21.70
2019-03-27T18:41:58.584Z,23.57
2019-03-27T18:44:31.099Z,22.17
2019-03-27T18:47:02.514Z,25.57
2019-03-27T18:49:36.483Z,27.40
2019-03-27T18:52:21.800Z,29.13
2019-03-27T18:54:57.418Z,29.90
2019-03-27T18:57:29.300Z,33.77
2019-03-27T19:00:03.959Z,48.70
2019-03-27T19:02:40.179Z,30.60
2019-03-27T19:05:14.868Z,25.77
2019-03-27T19:07:50.614Z,29.20
2019-03-27T19:10:24.309Z,24.90
2019-03-27T19:13:06.368Z,24.47
2019-03-27T19:15:43.729Z,25.80
2019-03-27T19:18:17.414Z,31.50
2019-03-27T19:20:50.350Z,26.53
2019-03-27T19:23:22.998Z,31.67
2019-03-27T19:25:55.060Z,28.40
2019-03-27T19:28:29.788Z,28.87
2019-03-27T19:31:07.598Z,29.40
2019-03-27T19:33:43.550Z,29.77
2019-03-27T19:36:16.454Z,32.80
2019-03-27T19:38:51.958Z,29.97
2019-03-27T19:41:25.803Z,27.97
2019-03-27T19:44:02.699Z,28.40
2019-03-27T19:46:35.609Z,30.77
2019-03-27T19:49:08.219Z,26.70
2019-03-27T19:51:46.324Z,29.57
2019-03-27T19:54:26.913Z,29.43
2019-03-27T19:56:59.279Z,30.30
2019-03-27T19:59:31.523Z,29.83
2019-03-27T20:02:07.479Z,27.07
2019-03-27T20:04:44.169Z,29.93
2019-03-27T20:07:21.099Z,30.73
2019-03-27T20:10:00.399Z,33.00
2019-03-27T20:12:37.981Z,31.13
2019-03-27T20:15:12.800Z,29.50
2019-03-27T20:17:45.813Z,23.00
2019-03-27T20:20:18.358Z,33.03
2019-03-27T20:22:52.878Z,26.70
2019-03-27T20:25:28.788Z,27.13
2019-03-27T20:28:05.827Z,26.93
2019-03-27T20:30:37.123Z,24.93
2019-03-27T20:33:08.583Z,22.93
2019-03-27T20:35:47.700Z,23.10
2019-03-27T20:38:19.196Z,26.10
2019-03-27T20:40:54.193Z,26.87
2019-03-27T20:43:29.639Z,24.47
2019-03-27T20:46:07.698Z,26.07
2019-03-27T20:48:42.570Z,25.57
2019-03-27T20:51:16.419Z,28.73
2019-03-27T20:53:53.381Z,25.47
2019-03-27T20:56:25.046Z,26.97
2019-03-27T20:59:01.502Z,26.83
2019-03-27T21:01:32.954Z,31.10
2019-03-27T21:04:04.394Z,30.53
2019-03-27T21:06:38.842Z,27.87
2019-03-27T21:09:10.344Z,44.40
2019-03-27T21:11:44.162Z,42.23
2019-03-27T21:14:15.350Z,35.87
2019-03-27T21:16:47.768Z,39.20
2019-03-27T21:19:19.378Z,34.00
2019-03-27T21:21:50.555Z,28.87
2019-03-27T21:24:24.896Z,27.70
2019-03-27T21:26:56.264Z,28.50
2019-03-27T21:29:27.486Z,27.93
2019-03-27T21:31:58.831Z,29.20
2019-03-27T21:34:30.058Z,31.07
2019-03-27T21:37:01.369Z,32.23
2019-03-27T21:39:32.685Z,32.40
2019-03-27T21:42:04.060Z,35.37
2019-03-27T21:44:35.342Z,31.90
2019-03-27T21:47:06.797Z,34.63
2019-03-27T21:49:38.036Z,33.87
2019-03-27T21:52:09.340Z,31.37
2019-03-27T21:54:40.684Z,32.50
2019-03-27T21:57:12.174Z,38.10
2019-03-27T21:59:44.223Z,33.57
2019-03-27T22:02:15.474Z,25.40
2019-03-27T22:04:46.778Z,36.53
2019-03-27T22:07:19.479Z,28.77
2019-03-27T22:09:50.910Z,32.67
2019-03-27T22:12:22.132Z,32.10
2019-03-27T22:14:56.764Z,33.77
2019-03-27T22:17:27.999Z,33.53
2019-03-27T22:19:59.902Z,30.60
2019-03-27T22:22:31.120Z,32.00
2019-03-27T22:25:02.302Z,30.50
2019-03-27T22:27:33.469Z,35.77
2019-03-27T22:30:05.364Z,46.17
2019-03-27T22:32:36.541Z,45.60
2019-03-27T22:35:09.064Z,54.03
2019-03-27T22:37:40.400Z,60.87
2019-03-27T22:40:12.152Z,56.17
2019-03-27T22:42:43.395Z,41.73
2019-03-27T22:45:14.799Z,37.67
2019-03-27T22:47:45.904Z,39.57
2019-03-27T22:50:17.149Z,30.60
2019-03-27T22:52:48.296Z,35.27
2019-03-27T22:55:19.475Z,32.73
2019-03-27T22:57:50.750Z,36.13
2019-03-27T23:00:26.748Z,31.73
2019-03-27T23:02:58.001Z,38.00
2019-03-27T23:05:30.270Z,34.37
2019-03-27T23:08:01.780Z,38.60
2019-03-27T23:10:32.930Z,41.23
2019-03-27T23:13:04.227Z,40.50
2019-03-27T23:15:35.495Z,43.20
2019-03-27T23:18:07.204Z,42.77
2019-03-27T23:20:38.380Z,40.53
2019-03-27T23:23:09.681Z,38.67
2019-03-27T23:25:40.956Z,42.20
2019-03-27T23:28:12.065Z,40.10
2019-03-27T23:30:43.222Z,39.73
2019-03-27T23:33:14.438Z,39.23
2019-03-27T23:35:45.918Z,42.23
2019-03-27T23:38:16.988Z,39.07
2019-03-27T23:40:48.068Z,43.77
2019-03-27T23:43:19.319Z,42.07
2019-03-27T23:45:50.389Z,41.00
2019-03-27T23:48:21.541Z,44.40
2019-03-27T23:50:52.689Z,41.40
2019-03-27T23:53:23.981Z,46.47
2019-03-27T23:55:55.260Z,46.43
2019-03-27T23:58:26.470Z,47.33
